Hauptseite
METAR-TAF:

METAR-TAF

Flughäfen :

Flughafen Brunei International

Brunei, Brunei

Breite: 04-56N, Länge: 114-56E, Höhe: 22 m

Beobachtung

Neuester Wetterbericht von vor 36 Minuten, um 00:00 UTC
Wind 5 kt aus Süd
Temperatur 26°C
Luftfeuchtigkeit 94%
Luftdruck 1015 hPa
Sichtweite: 8000 m
Leicht bewölkt in der Höhe von 1400 ft
Durchbrochene Bewölkung in der Höhe von 30000 ft

METAR: WBSB 210000Z 19005KT 8000 FEW014 BKN300 26/25 Q1015 NOSIG

Zeit: 08:36 (00:36 UTC)

Prognose

Neuester Wetterbericht von vor 1 Stunde und 46 Minuten, um 22:50 UTC
Gültige Prognose vom 21 um 00 UTC bis 22 um 06 UTC
Wind 3 kt aus Südwest
Sichtweite 10 km oder mehr
Leicht bewölkt in der Höhe von 1500 ft
Übergehend zu
vom 21 um 04 UTC bis 21 um 06 UTC
Wind 10 kt aus Nord/Nordost
Leicht bewölkt in der Höhe von 1700 ft

TAF: WBSB 202250Z 2100/2206 22003KT 9999 FEW015 BECMG 2104/2106 02010KT FEW017

Wetterbeobachtungen und Prognosen von mehr als 4000 Flughäfen (METAR und TAF Bericht).

Die verfügbaren Stationen werden durch gelbe und rote Markierungen auf der Karte dargestellt.

Führen Sie die Maus auf sie, um den Namen der Station zu sehen.

Darauf klicken, um die Beobachtung von Wetterbeobachtungen und Prognosen zu sehen.

Um die Karte zu ändern : klicken Sie auf den grünen Tasten mit einem schwarzen Kreuz Zum Vergrößern, auf den grünen Button mit einem Gedankenstrich zu verkleinern, oder auf die grünen Pfeile für benachbarte Karten.


METAR-TAF: